createdAt,value
2023-01-20T00:01:39.781Z,98806.00
2023-01-20T00:04:07.949Z,98799.00
2023-01-20T00:06:36.379Z,98801.00
2023-01-20T00:09:06.892Z,98801.00
2023-01-20T00:11:35.091Z,98803.00
2023-01-20T00:14:03.941Z,98813.00
2023-01-20T00:16:33.422Z,98807.00
2023-01-20T00:19:01.500Z,98814.00
2023-01-20T00:21:29.842Z,98818.00
2023-01-20T00:23:57.818Z,98828.00
2023-01-20T00:26:27.354Z,98826.00
2023-01-20T00:28:57.611Z,98826.00
2023-01-20T00:31:28.798Z,98826.00
2023-01-20T00:33:58.813Z,98822.00
2023-01-20T00:36:29.357Z,98824.00
2023-01-20T00:38:57.199Z,98828.00
2023-01-20T00:41:26.472Z,98834.00
2023-01-20T00:43:54.374Z,98837.00
2023-01-20T00:46:23.262Z,98849.00
2023-01-20T00:48:51.214Z,98848.00
2023-01-20T00:51:19.163Z,98843.00
2023-01-20T00:53:47.019Z,98857.00
2023-01-20T00:56:14.893Z,98865.00
2023-01-20T00:58:45.521Z,98854.00
2023-01-20T01:01:13.956Z,98862.00
2023-01-20T01:03:41.896Z,98866.00
2023-01-20T01:06:13.494Z,98868.00
2023-01-20T01:08:42.137Z,98880.00
2023-01-20T01:11:10.858Z,98880.00
2023-01-20T01:13:39.508Z,98889.00
2023-01-20T01:16:13.453Z,98888.00
2023-01-20T01:18:41.866Z,98898.00
2023-01-20T01:21:13.079Z,98894.00
2023-01-20T01:23:40.976Z,98912.00
2023-01-20T01:26:09.985Z,98913.00
2023-01-20T01:28:38.070Z,98897.00
2023-01-20T01:31:09.248Z,98908.00
2023-01-20T01:33:37.515Z,98916.00
2023-01-20T01:36:08.439Z,98920.00
2023-01-20T01:38:36.460Z,98892.00
2023-01-20T01:41:04.432Z,98915.00
2023-01-20T01:43:35.689Z,98909.00
2023-01-20T01:46:04.845Z,98899.00
2023-01-20T01:48:39.662Z,98920.00
2023-01-20T01:51:14.632Z,98917.00
2023-01-20T01:53:47.597Z,98910.00
2023-01-20T01:56:16.961Z,98931.00
2023-01-20T01:58:49.708Z,98935.00
2023-01-20T02:01:18.634Z,98931.00
2023-01-20T02:03:57.481Z,98934.00
2023-01-20T02:06:32.560Z,98927.00
2023-01-20T02:09:03.244Z,98943.00
2023-01-20T02:11:37.197Z,98939.00
2023-01-20T02:14:06.270Z,98933.00
2023-01-20T02:16:49.459Z,98925.00
2023-01-20T02:20:16.142Z,98938.00
2023-01-20T02:22:55.610Z,98936.00
2023-01-20T02:25:56.231Z,98939.00
2023-01-20T02:29:08.187Z,98951.00
2023-01-20T02:32:19.725Z,98945.00
2023-01-20T02:34:59.805Z,98951.00
2023-01-20T02:37:30.199Z,98933.00
2023-01-20T02:40:16.890Z,98960.00
2023-01-20T02:42:53.636Z,98960.00
2023-01-20T02:45:27.858Z,98944.00
2023-01-20T02:48:03.201Z,98965.00
2023-01-20T02:50:43.601Z,98960.00
2023-01-20T02:53:15.020Z,98968.00
2023-01-20T02:55:48.019Z,98965.00
2023-01-20T02:58:24.236Z,98960.00
2023-01-20T03:01:08.240Z,98965.00
2023-01-20T03:03:44.089Z,98975.00
2023-01-20T03:06:18.984Z,98980.00
2023-01-20T03:08:49.591Z,98974.00
2023-01-20T03:11:17.893Z,98980.00
2023-01-20T03:13:51.929Z,98981.00
2023-01-20T03:16:23.331Z,98982.00
2023-01-20T03:18:53.331Z,98970.00
2023-01-20T03:21:21.713Z,98979.00
2023-01-20T03:23:54.041Z,98969.00
2023-01-20T03:26:24.740Z,98993.00
2023-01-20T03:28:54.530Z,98995.00
2023-01-20T03:31:29.928Z,98998.00
2023-01-20T03:34:03.139Z,99005.00
2023-01-20T03:36:33.752Z,99005.00
2023-01-20T03:39:02.191Z,99006.00
2023-01-20T03:41:43.065Z,99012.00
2023-01-20T03:44:17.739Z,99013.00
2023-01-20T03:46:54.398Z,99013.00
2023-01-20T03:49:34.739Z,99013.00
2023-01-20T03:52:08.995Z,99013.00
2023-01-20T03:54:46.408Z,99015.00
2023-01-20T03:57:20.503Z,99021.00
2023-01-20T03:59:52.657Z,99025.00
2023-01-20T04:02:23.353Z,99033.00
2023-01-20T04:04:54.648Z,99028.00
2023-01-20T04:07:25.595Z,99020.00
2023-01-20T04:10:02.779Z,99033.00
2023-01-20T04:12:31.178Z,99047.00
2023-01-20T04:14:59.134Z,99036.00
2023-01-20T04:17:29.044Z,99034.00
2023-01-20T04:20:02.990Z,99040.00
2023-01-20T04:22:38.921Z,99042.00
2023-01-20T04:25:15.703Z,99035.00
2023-01-20T04:27:43.780Z,99042.00
2023-01-20T04:30:14.261Z,99033.00
2023-01-20T04:32:42.320Z,99026.00
2023-01-20T04:35:15.937Z,99039.00
2023-01-20T04:37:44.111Z,99034.00
2023-01-20T04:40:13.401Z,99047.00
2023-01-20T04:42:41.269Z,99052.00
2023-01-20T04:45:15.165Z,99047.00
2023-01-20T04:47:44.007Z,99052.00
2023-01-20T04:50:15.181Z,99038.00
2023-01-20T04:52:44.106Z,99063.00
2023-01-20T04:55:13.532Z,99066.00
2023-01-20T04:57:41.593Z,99068.00
2023-01-20T05:00:12.165Z,99074.00
2023-01-20T05:02:40.027Z,99070.00
2023-01-20T05:05:10.214Z,99075.00
2023-01-20T05:07:39.436Z,99080.00
2023-01-20T05:10:09.057Z,99075.00
2023-01-20T05:12:37.385Z,99070.00
2023-01-20T05:15:06.812Z,99082.00
2023-01-20T05:17:34.656Z,99082.00
2023-01-20T05:20:02.516Z,99080.00
2023-01-20T05:22:33.071Z,99090.00
2023-01-20T05:25:02.242Z,99091.00
2023-01-20T05:27:30.157Z,99101.00
2023-01-20T05:29:58.051Z,99104.00
2023-01-20T05:32:25.933Z,99110.00
2023-01-20T05:34:53.806Z,99120.00
2023-01-20T05:37:21.690Z,99134.00
2023-01-20T05:39:49.581Z,99128.00
2023-01-20T05:42:18.824Z,99133.00
2023-01-20T05:44:46.651Z,99129.00
2023-01-20T05:47:14.598Z,99128.00
2023-01-20T05:49:42.455Z,99128.00
2023-01-20T05:52:10.329Z,99134.00
2023-01-20T05:54:38.177Z,99130.00
2023-01-20T05:57:06.081Z,99131.00
2023-01-20T05:59:35.266Z,99147.00
2023-01-20T06:02:03.179Z,99141.00
2023-01-20T06:04:31.077Z,99138.00
2023-01-20T06:06:59.211Z,99149.00
2023-01-20T06:09:27.054Z,99145.00
2023-01-20T06:11:54.901Z,99149.00
2023-01-20T06:14:22.753Z,99151.00
2023-01-20T06:16:52.483Z,99152.00
2023-01-20T06:19:20.314Z,99160.00
2023-01-20T06:21:48.777Z,99155.00
2023-01-20T06:24:16.752Z,99164.00
2023-01-20T06:26:44.692Z,99163.00
2023-01-20T06:29:12.524Z,99170.00
2023-01-20T06:31:40.402Z,99173.00
2023-01-20T06:34:09.578Z,99160.00
2023-01-20T06:36:37.462Z,99178.00
2023-01-20T06:39:05.361Z,99178.00
2023-01-20T06:41:33.427Z,99187.00
2023-01-20T06:44:01.322Z,99189.00
2023-01-20T06:46:29.312Z,99198.00
2023-01-20T06:49:00.577Z,99194.00
2023-01-20T06:51:31.455Z,99201.00
2023-01-20T06:53:59.441Z,99202.00
2023-01-20T06:56:27.490Z,99202.00
2023-01-20T06:58:55.858Z,99204.00
2023-01-20T07:01:27.452Z,99204.00
2023-01-20T07:03:55.713Z,99212.00
2023-01-20T07:06:31.553Z,99220.00
2023-01-20T07:09:01.285Z,99216.00
2023-01-20T07:11:31.319Z,99224.00
2023-01-20T07:13:59.506Z,99222.00
2023-01-20T07:16:27.575Z,99230.00
2023-01-20T07:18:55.786Z,99231.00
2023-01-20T07:21:26.432Z,99226.00
2023-01-20T07:23:56.024Z,99236.00
2023-01-20T07:26:26.526Z,99224.00
2023-01-20T07:28:54.633Z,99239.00
2023-01-20T07:31:25.653Z,99236.00
2023-01-20T07:33:55.580Z,99239.00
2023-01-20T07:36:23.743Z,99254.00
2023-01-20T07:38:52.782Z,99256.00
2023-01-20T07:41:23.078Z,99253.00
2023-01-20T07:43:52.993Z,99262.00
2023-01-20T07:46:21.942Z,99271.00
2023-01-20T07:48:49.968Z,99273.00
2023-01-20T07:51:18.573Z,99269.00
2023-01-20T07:53:49.481Z,99284.00
2023-01-20T07:56:21.875Z,99286.00
2023-01-20T07:58:50.655Z,99284.00
2023-01-20T08:01:22.430Z,99298.00
2023-01-20T08:03:50.939Z,99299.00
2023-01-20T08:06:22.184Z,99278.00
2023-01-20T08:08:50.824Z,99313.00
2023-01-20T08:11:21.846Z,99311.00
2023-01-20T08:13:50.497Z,99313.00
2023-01-20T08:16:20.193Z,99296.00
2023-01-20T08:18:48.761Z,99315.00
2023-01-20T08:21:22.994Z,99312.00
2023-01-20T08:23:52.101Z,99318.00
2023-01-20T08:26:21.401Z,99323.00
2023-01-20T08:28:49.396Z,99321.00
2023-01-20T08:31:21.239Z,99328.00
2023-01-20T08:33:52.882Z,99315.00
2023-01-20T08:36:24.109Z,99327.00
2023-01-20T08:38:52.122Z,99334.00
2023-01-20T08:41:26.633Z,99333.00
2023-01-20T08:43:55.695Z,99336.00
2023-01-20T08:46:23.844Z,99336.00
2023-01-20T08:48:52.996Z,99350.00
2023-01-20T08:51:24.964Z,99357.00
2023-01-20T08:53:53.322Z,99350.00
2023-01-20T08:56:23.652Z,99341.00
2023-01-20T08:58:51.917Z,99365.00
2023-01-20T09:01:22.525Z,99364.00
2023-01-20T09:04:04.324Z,99367.00
2023-01-20T09:06:38.725Z,99358.00
2023-01-20T09:09:06.694Z,99382.00
2023-01-20T09:11:36.108Z,99390.00
2023-01-20T09:14:04.857Z,99392.00
2023-01-20T09:16:32.761Z,99389.00
2023-01-20T09:19:00.650Z,99394.00
2023-01-20T09:21:28.518Z,99386.00
2023-01-20T09:23:56.366Z,99397.00
2023-01-20T09:26:35.285Z,99401.00
2023-01-20T09:29:09.603Z,99404.00
2023-01-20T09:31:39.766Z,99407.00
2023-01-20T09:34:07.971Z,99404.00
2023-01-20T09:36:35.853Z,99405.00
2023-01-20T09:39:22.410Z,99410.00
2023-01-20T09:42:14.652Z,99400.00
2023-01-20T09:44:53.699Z,99413.00
2023-01-20T09:47:31.760Z,99412.00
2023-01-20T09:50:43.591Z,99411.00
2023-01-20T09:53:24.953Z,99405.00
2023-01-20T09:55:55.682Z,99404.00
2023-01-20T09:58:33.887Z,99408.00
2023-01-20T10:01:13.701Z,99404.00
2023-01-20T10:03:49.321Z,99402.00
2023-01-20T10:06:24.763Z,99393.00
2023-01-20T10:09:05.452Z,99402.00
2023-01-20T10:11:41.182Z,99404.00
2023-01-20T10:14:17.987Z,99408.00
2023-01-20T10:16:57.875Z,99396.00
2023-01-20T10:19:32.650Z,99408.00
2023-01-20T10:22:10.847Z,99401.00
2023-01-20T10:24:48.170Z,99409.00
2023-01-20T10:27:16.081Z,99406.00
2023-01-20T10:29:52.816Z,99406.00
2023-01-20T10:32:33.461Z,99411.00
2023-01-20T10:35:12.269Z,99408.00
2023-01-20T10:37:40.617Z,99421.00
2023-01-20T10:40:22.543Z,99409.00
2023-01-20T10:42:56.566Z,99418.00
2023-01-20T10:45:39.160Z,99418.00
2023-01-20T10:48:28.884Z,99413.00
2023-01-20T10:51:05.909Z,99425.00
2023-01-20T10:53:51.798Z,99423.00
2023-01-20T10:56:37.846Z,99427.00
2023-01-20T10:59:14.549Z,99419.00
2023-01-20T11:01:45.843Z,99424.00
2023-01-20T11:04:21.423Z,99431.00
2023-01-20T11:06:55.989Z,99429.00
2023-01-20T11:09:33.759Z,99435.00
2023-01-20T11:12:07.516Z,99428.00
2023-01-20T11:14:35.480Z,99439.00
2023-01-20T11:17:07.202Z,99441.00
2023-01-20T11:19:51.374Z,99438.00
2023-01-20T11:22:29.948Z,99445.00
2023-01-20T11:25:00.231Z,99443.00
2023-01-20T11:27:33.155Z,99451.00
2023-01-20T11:30:06.576Z,99455.00
2023-01-20T11:32:37.275Z,99465.00
2023-01-20T11:35:22.818Z,99449.00
2023-01-20T11:37:50.843Z,99454.00
2023-01-20T11:40:23.131Z,99460.00
2023-01-20T11:42:53.202Z,99463.00
2023-01-20T11:45:32.481Z,99468.00
2023-01-20T11:48:07.839Z,99468.00
2023-01-20T11:50:42.702Z,99472.00
2023-01-20T11:53:20.108Z,99455.00
2023-01-20T11:55:54.728Z,99465.00
2023-01-20T11:58:25.585Z,99474.00
2023-01-20T12:01:03.655Z,99484.00
2023-01-20T12:04:17.157Z,99484.00
2023-01-20T12:06:56.157Z,99474.00
2023-01-20T12:09:33.710Z,99485.00
2023-01-20T12:12:07.298Z,99473.00
2023-01-20T12:14:47.167Z,99486.00
2023-01-20T12:17:39.518Z,99490.00
2023-01-20T12:20:18.694Z,99490.00
2023-01-20T12:23:08.682Z,99502.00
2023-01-20T12:25:43.737Z,99509.00
2023-01-20T12:28:20.501Z,99489.00
2023-01-20T12:30:59.872Z,99505.00
2023-01-20T12:33:33.082Z,99504.00
2023-01-20T12:36:41.526Z,99515.00
2023-01-20T12:39:33.640Z,99507.00
2023-01-20T12:42:49.657Z,99521.00
2023-01-20T12:45:47.010Z,99509.00
2023-01-20T12:48:42.785Z,99503.00
2023-01-20T12:51:30.690Z,99521.00
2023-01-20T12:54:30.538Z,99522.00
2023-01-20T12:57:22.186Z,99531.00
2023-01-20T13:00:24.180Z,99530.00
2023-01-20T13:03:21.493Z,99529.00
2023-01-20T13:06:28.021Z,99538.00
2023-01-20T13:09:08.461Z,99534.00
2023-01-20T13:11:57.566Z,99540.00
2023-01-20T13:14:40.578Z,99535.00
2023-01-20T13:17:21.638Z,99536.00
2023-01-20T13:19:54.110Z,99541.00
2023-01-20T13:22:25.516Z,99537.00
2023-01-20T13:24:56.318Z,99547.00
2023-01-20T13:27:29.068Z,99550.00
2023-01-20T13:29:59.323Z,99561.00
2023-01-20T13:32:34.050Z,99554.00
2023-01-20T13:35:03.708Z,99562.00
2023-01-20T13:37:38.536Z,99562.00
2023-01-20T13:40:51.420Z,99567.00
2023-01-20T13:43:48.107Z,99553.00
2023-01-20T13:46:47.111Z,99550.00
2023-01-20T13:49:52.524Z,99580.00
2023-01-20T13:53:15.183Z,99584.00
2023-01-20T13:55:55.641Z,99587.00
2023-01-20T13:58:28.650Z,99573.00
2023-01-20T14:01:00.181Z,99591.00
2023-01-20T14:03:31.312Z,99591.00
2023-01-20T14:06:02.192Z,99600.00
2023-01-20T14:08:37.977Z,99591.00
2023-01-20T14:11:12.297Z,99601.00
2023-01-20T14:13:41.261Z,99584.00
2023-01-20T14:16:22.054Z,99587.00
2023-01-20T14:18:50.464Z,99599.00
2023-01-20T14:21:22.201Z,99596.00
2023-01-20T14:23:51.456Z,99587.00
2023-01-20T14:26:25.297Z,99599.00
2023-01-20T14:28:56.042Z,99607.00
2023-01-20T14:31:40.707Z,99607.00
2023-01-20T14:34:28.149Z,99613.00
2023-01-20T14:37:00.193Z,99619.00
2023-01-20T14:39:30.657Z,99617.00
2023-01-20T14:42:00.588Z,99621.00
2023-01-20T14:44:33.128Z,99623.00
2023-01-20T14:47:04.932Z,99625.00
2023-01-20T14:49:36.338Z,99629.00
2023-01-20T14:52:07.319Z,99629.00
2023-01-20T14:54:43.909Z,99626.00
2023-01-20T14:57:29.282Z,99633.00
2023-01-20T15:00:20.373Z,99634.00
2023-01-20T15:03:09.888Z,99643.00
2023-01-20T15:05:41.799Z,99633.00
2023-01-20T15:08:26.801Z,99649.00
2023-01-20T15:11:22.473Z,99654.00
2023-01-20T15:14:11.204Z,99668.00
2023-01-20T15:16:50.906Z,99660.00
2023-01-20T15:19:35.697Z,99663.00
2023-01-20T15:22:20.835Z,99666.00
2023-01-20T15:24:50.547Z,99678.00
2023-01-20T15:27:34.201Z,99672.00
2023-01-20T15:30:20.847Z,99672.00
2023-01-20T15:32:49.920Z,99686.00
2023-01-20T15:35:22.873Z,99686.00
2023-01-20T15:37:51.949Z,99688.00
2023-01-20T15:40:22.569Z,99682.00
2023-01-20T15:42:53.286Z,99699.00
2023-01-20T15:45:21.332Z,99702.00
2023-01-20T15:47:49.748Z,99703.00
2023-01-20T15:50:22.476Z,99713.00
2023-01-20T15:52:51.197Z,99711.00
2023-01-20T15:55:20.545Z,99713.00
2023-01-20T15:57:52.762Z,99715.00
2023-01-20T16:00:23.382Z,99720.00
2023-01-20T16:02:51.599Z,99724.00
2023-01-20T16:05:21.282Z,99729.00
2023-01-20T16:07:50.211Z,99729.00
2023-01-20T16:10:19.858Z,99726.00
2023-01-20T16:12:48.217Z,99736.00
2023-01-20T16:15:18.732Z,99731.00
2023-01-20T16:17:46.660Z,99745.00
2023-01-20T16:20:25.915Z,99737.00
2023-01-20T16:22:54.392Z,99745.00
2023-01-20T16:25:22.346Z,99745.00
2023-01-20T16:27:50.306Z,99749.00
2023-01-20T16:30:22.816Z,99755.00
2023-01-20T16:32:51.141Z,99758.00
2023-01-20T16:35:21.196Z,99758.00
2023-01-20T16:37:50.778Z,99764.00
2023-01-20T16:40:21.540Z,99760.00
2023-01-20T16:42:49.491Z,99765.00
2023-01-20T16:45:27.991Z,99772.00
2023-01-20T16:47:56.916Z,99781.00
2023-01-20T16:50:27.761Z,99784.00
2023-01-20T16:52:57.260Z,99782.00
2023-01-20T16:55:25.428Z,99783.00
2023-01-20T16:57:54.029Z,99784.00
2023-01-20T17:00:23.131Z,99784.00
2023-01-20T17:02:52.537Z,99778.00
2023-01-20T17:05:22.540Z,99788.00
2023-01-20T17:07:50.661Z,99782.00
2023-01-20T17:10:21.404Z,99817.00
2023-01-20T17:12:49.375Z,99802.00
2023-01-20T17:15:17.534Z,99805.00
2023-01-20T17:17:49.787Z,99805.00
2023-01-20T17:20:18.331Z,99804.00
2023-01-20T17:22:46.213Z,99819.00
2023-01-20T17:25:17.952Z,99825.00
2023-01-20T17:27:47.250Z,99825.00
2023-01-20T17:30:16.959Z,99829.00
2023-01-20T17:32:48.323Z,99823.00
2023-01-20T17:35:17.276Z,99826.00
2023-01-20T17:37:45.152Z,99836.00
2023-01-20T17:40:14.927Z,99837.00
2023-01-20T17:42:44.005Z,99841.00
2023-01-20T17:45:13.689Z,99840.00
2023-01-20T17:47:41.589Z,99841.00
2023-01-20T17:50:11.268Z,99844.00
2023-01-20T17:52:39.170Z,99839.00
2023-01-20T17:55:08.362Z,99840.00
2023-01-20T17:57:36.355Z,99850.00
2023-01-20T18:00:06.319Z,99849.00
2023-01-20T18:02:36.174Z,99857.00
2023-01-20T18:05:04.637Z,99860.00
2023-01-20T18:07:32.513Z,99860.00
2023-01-20T18:10:00.463Z,99853.00
2023-01-20T18:12:28.425Z,99862.00
2023-01-20T18:14:57.657Z,99875.00
2023-01-20T18:17:25.861Z,99870.00
2023-01-20T18:19:55.104Z,99866.00
2023-01-20T18:22:22.944Z,99878.00
2023-01-20T18:24:50.791Z,99874.00
2023-01-20T18:27:19.458Z,99873.00
2023-01-20T18:29:50.222Z,99872.00
2023-01-20T18:32:18.206Z,99876.00
2023-01-20T18:34:46.131Z,99876.00
2023-01-20T18:37:15.323Z,99887.00
2023-01-20T18:39:43.895Z,99889.00
2023-01-20T18:42:12.160Z,99863.00
2023-01-20T18:44:40.041Z,99896.00
2023-01-20T18:47:08.023Z,99887.00
2023-01-20T18:49:35.961Z,99886.00
2023-01-20T18:52:03.966Z,99896.00
2023-01-20T18:54:34.228Z,99900.00
2023-01-20T18:57:03.243Z,99895.00
2023-01-20T18:59:31.453Z,99901.00
2023-01-20T19:01:59.455Z,99900.00
2023-01-20T19:04:27.520Z,99887.00
2023-01-20T19:06:55.411Z,99905.00
2023-01-20T19:09:23.326Z,99912.00
2023-01-20T19:11:52.552Z,99900.00
2023-01-20T19:14:20.519Z,99909.00
2023-01-20T19:16:49.397Z,99915.00
2023-01-20T19:19:18.952Z,99908.00
2023-01-20T19:21:47.062Z,99919.00
2023-01-20T19:24:19.933Z,99922.00
2023-01-20T19:26:48.622Z,99925.00
2023-01-20T19:29:18.795Z,99920.00
2023-01-20T19:31:46.754Z,99919.00
2023-01-20T19:34:14.689Z,99924.00
2023-01-20T19:36:42.716Z,99921.00
2023-01-20T19:39:10.903Z,99927.00
2023-01-20T19:41:39.679Z,99922.00
2023-01-20T19:44:07.847Z,99922.00
2023-01-20T19:46:39.592Z,99931.00
2023-01-20T19:49:08.777Z,99932.00
2023-01-20T19:51:37.211Z,99934.00
2023-01-20T19:54:06.735Z,99935.00
2023-01-20T19:56:36.613Z,99932.00
2023-01-20T19:59:06.752Z,99945.00
2023-01-20T20:01:37.726Z,99945.00
2023-01-20T20:04:08.500Z,99945.00
2023-01-20T20:06:39.284Z,99947.00
2023-01-20T20:09:11.089Z,99938.00
2023-01-20T20:11:39.907Z,99945.00
2023-01-20T20:14:11.825Z,99933.00
2023-01-20T20:16:42.132Z,99954.00
2023-01-20T20:19:14.695Z,99946.00
2023-01-20T20:21:42.804Z,99958.00
2023-01-20T20:24:14.001Z,99951.00
2023-01-20T20:26:44.460Z,99962.00
2023-01-20T20:29:14.218Z,99964.00
2023-01-20T20:31:43.506Z,99967.00
2023-01-20T20:34:15.855Z,99973.00
2023-01-20T20:36:44.417Z,99966.00
2023-01-20T20:39:16.739Z,99969.00
2023-01-20T20:41:45.552Z,99968.00
2023-01-20T20:44:14.384Z,99968.00
2023-01-20T20:46:44.335Z,99970.00
2023-01-20T20:49:15.550Z,99976.00
2023-01-20T20:51:43.840Z,99979.00
2023-01-20T20:54:13.006Z,99983.00
2023-01-20T20:56:40.981Z,99988.00
2023-01-20T20:59:10.504Z,99988.00
2023-01-20T21:01:38.481Z,99992.00
2023-01-20T21:04:08.635Z,99995.00
2023-01-20T21:06:36.480Z,100003.00
2023-01-20T21:09:04.656Z,99999.00
2023-01-20T21:11:33.572Z,100005.00
2023-01-20T21:14:01.834Z,100004.00
2023-01-20T21:16:30.149Z,100013.00
2023-01-20T21:18:59.232Z,100005.00
2023-01-20T21:21:29.215Z,100008.00
2023-01-20T21:23:59.611Z,99987.00
2023-01-20T21:26:30.728Z,100013.00
2023-01-20T21:29:02.070Z,100022.00
2023-01-20T21:31:31.544Z,100012.00
2023-01-20T21:34:00.926Z,100025.00
2023-01-20T21:36:33.853Z,100027.00
2023-01-20T21:39:01.947Z,100026.00
2023-01-20T21:41:29.904Z,100038.00
2023-01-20T21:44:15.233Z,100022.00
2023-01-20T21:46:43.188Z,100031.00
2023-01-20T21:49:29.375Z,100046.00
2023-01-20T21:52:16.341Z,100046.00
2023-01-20T21:54:45.284Z,100039.00
2023-01-20T21:57:14.549Z,100043.00
2023-01-20T21:59:43.326Z,100047.00
2023-01-20T22:02:14.184Z,100048.00
2023-01-20T22:04:42.350Z,100045.00
2023-01-20T22:07:11.588Z,100056.00
2023-01-20T22:09:40.003Z,100058.00
2023-01-20T22:12:09.007Z,100058.00
2023-01-20T22:14:37.549Z,100064.00
2023-01-20T22:17:06.225Z,100053.00
2023-01-20T22:19:34.324Z,100061.00
2023-01-20T22:22:02.971Z,100053.00
2023-01-20T22:24:32.596Z,100062.00
2023-01-20T22:27:00.518Z,100059.00
2023-01-20T22:29:28.857Z,100059.00
2023-01-20T22:31:57.475Z,100070.00
2023-01-20T22:34:26.155Z,100075.00
2023-01-20T22:36:56.769Z,100078.00
2023-01-20T22:39:24.978Z,100080.00
2023-01-20T22:41:54.326Z,100083.00
2023-01-20T22:44:22.177Z,100092.00
2023-01-20T22:46:50.032Z,100093.00
2023-01-20T22:49:18.093Z,100092.00
2023-01-20T22:51:45.944Z,100089.00
2023-01-20T22:54:13.825Z,100091.00
2023-01-20T22:56:41.673Z,100092.00
2023-01-20T22:59:14.251Z,100094.00
2023-01-20T23:01:42.123Z,100104.00
2023-01-20T23:04:11.269Z,100097.00
2023-01-20T23:06:39.320Z,100095.00
2023-01-20T23:09:11.879Z,100103.00
2023-01-20T23:11:40.477Z,100099.00
2023-01-20T23:14:10.719Z,100100.00
2023-01-20T23:16:40.962Z,100103.00
2023-01-20T23:19:09.592Z,100099.00
2023-01-20T23:21:37.506Z,100099.00
2023-01-20T23:24:05.800Z,100103.00
2023-01-20T23:26:34.253Z,100091.00
2023-01-20T23:29:02.219Z,100101.00
2023-01-20T23:31:33.157Z,100103.00
2023-01-20T23:34:02.453Z,100106.00
2023-01-20T23:36:30.305Z,100096.00
2023-01-20T23:38:58.436Z,100096.00
2023-01-20T23:41:26.672Z,100097.00
2023-01-20T23:43:54.540Z,100101.00
2023-01-20T23:46:22.547Z,100106.00
2023-01-20T23:48:50.426Z,100117.00
2023-01-20T23:51:19.614Z,100118.00
2023-01-20T23:53:47.583Z,100125.00
2023-01-20T23:56:18.830Z,100118.00
2023-01-20T23:58:47.011Z,100123.00
